Dades meteomassalio
Diari Summary for Noviembre 2, 2017 Units:  Metric    English   Both
« Previous Day
Next Day »
Diari Semanal Mensual Anual Personalitzat
  Maxima: Minima: Mijana:
Temperatura: 21.1 °C 3.9 °C 10.8 °C
Rosada: 14.1 °C 2.6 °C 7.7 °C
Humitat: 92 % 63 % 82 %
Velocitat del vent: 20.4 km/h 0.0 km/h 1.3 km/h
Racha vent: 20.4 km/h - -
Vent:- - SW
Pressio: 1023.9 hPa 1018.8 hPa -
Pluja: 0.0 mm    
Historical Graphs
 
 
Tabular Data for Noviembre 2, 2017
Time Temperature Dew Point Pressure Wind Wind Speed Wind Gust Humidity Rainfall Rate (Hourly) solar Conditions
00:01 7.2 °C 5.4 °C 1023.6 hPa Calm     88 % 0.0 mm 0.0 W/m2 CLR
00:06 7.2 °C 5.2 °C 1023.9 hPa Calm     87 % 0.0 mm 0.0 W/m2 CLR
00:11 7.2 °C 5.2 °C 1023.6 hPa Calm     87 % 0.0 mm 0.0 W/m2 CLR
00:16 6.7 °C 4.7 °C 1023.6 hPa Calm     87 % 0.0 mm 0.0 W/m2 CLR
00:21 6.7 °C 4.7 °C 1023.6 hPa Calm     87 % 0.0 mm 0.0 W/m2 CLR
00:26 6.7 °C 4.7 °C 1023.6 hPa Calm     87 % 0.0 mm 0.0 W/m2 CLR
00:31 6.7 °C 4.8 °C 1023.6 hPa Calm     88 % 0.0 mm 0.0 W/m2 CLR
00:36 6.7 °C 4.8 °C 1023.6 hPa Calm     88 % 0.0 mm 0.0 W/m2 CLR
00:41 6.7 °C 4.8 °C 1023.6 hPa Calm     88 % 0.0 mm 0.0 W/m2 CLR
00:46 6.7 °C 4.8 °C 1023.6 hPa Calm     88 % 0.0 mm 0.0 W/m2 CLR
00:51 6.7 °C 4.8 °C 1023.6 hPa Calm     88 % 0.0 mm 0.0 W/m2 CLR
00:56 6.7 °C 5.0 °C 1023.6 hPa Calm     89 % 0.0 mm 0.0 W/m2 CLR
01:01 6.7 °C 5.0 °C 1023.6 hPa Calm     89 % 0.0 mm 0.0 W/m2 CLR
01:06 6.1 °C 4.4 °C 1023.6 hPa Calm     89 % 0.0 mm 0.0 W/m2 CLR
01:11 6.1 °C 4.4 °C 1023.6 hPa Calm     89 % 0.0 mm 0.0 W/m2 CLR
01:16 6.1 °C 4.4 °C 1023.6 hPa Calm     89 % 0.0 mm 0.0 W/m2 CLR
01:21 6.1 °C 4.4 °C 1023.2 hPa Calm     89 % 0.0 mm 0.0 W/m2 CLR
01:26 6.1 °C 4.4 °C 1023.2 hPa Calm     89 % 0.0 mm 0.0 W/m2 CLR
01:31 6.7 °C 5.0 °C 1023.2 hPa Calm     89 % 0.0 mm 0.0 W/m2 CLR
01:36 6.7 °C 5.0 °C 1023.2 hPa Calm     89 % 0.0 mm 0.0 W/m2 CLR
01:41 6.7 °C 5.0 °C 1023.2 hPa Calm     89 % 0.0 mm 0.0 W/m2 CLR
01:46 6.7 °C 5.0 °C 1023.2 hPa Calm     89 % 0.0 mm 0.0 W/m2 CLR
01:47 6.1 °C 4.4 °C 1023.2 hPa Calm     89 % 0.0 mm 0.0 W/m2 CLR
01:52 6.1 °C 4.4 °C 1023.2 hPa Calm     89 % 0.0 mm 0.0 W/m2 CLR
01:57 6.1 °C 4.6 °C 1023.2 hPa Calm     90 % 0.0 mm 0.0 W/m2 CLR
02:02 6.1 °C 4.6 °C 1023.2 hPa Calm     90 % 0.0 mm 0.0 W/m2 CLR
02:07 6.1 °C 4.6 °C 1023.2 hPa Calm     90 % 0.0 mm 0.0 W/m2 CLR
02:12 6.1 °C 4.6 °C 1023.2 hPa Calm     90 % 0.0 mm 0.0 W/m2 CLR
02:17 6.1 °C 4.6 °C 1023.2 hPa Calm     90 % 0.0 mm 0.0 W/m2 CLR
02:22 6.1 °C 4.6 °C 1023.2 hPa Calm     90 % 0.0 mm 0.0 W/m2 CLR
02:27 6.1 °C 4.6 °C 1023.2 hPa Calm     90 % 0.0 mm 0.0 W/m2 CLR
02:32 6.1 °C 4.8 °C 1023.2 hPa Calm     91 % 0.0 mm 0.0 W/m2 CLR
02:37 6.1 °C 4.6 °C 1023.2 hPa Calm     90 % 0.0 mm 0.0 W/m2 CLR
02:42 5.6 °C 4.1 °C 1023.2 hPa Calm     90 % 0.0 mm 0.0 W/m2 CLR
02:47 5.6 °C 4.1 °C 1023.2 hPa Calm     90 % 0.0 mm 0.0 W/m2 CLR
02:52 5.6 °C 4.1 °C 1022.9 hPa Calm     90 % 0.0 mm 0.0 W/m2 CLR
02:57 5.0 °C 3.5 °C 1022.9 hPa Calm     90 % 0.0 mm 0.0 W/m2 CLR
03:02 5.0 °C 3.5 °C 1022.9 hPa Calm     90 % 0.0 mm 0.0 W/m2 CLR
03:07 5.0 °C 3.5 °C 1022.9 hPa Calm     90 % 0.0 mm 0.0 W/m2 CLR
03:12 5.0 °C 3.5 °C 1022.9 hPa Calm     90 % 0.0 mm 0.0 W/m2 CLR
03:17 4.4 °C 2.9 °C 1022.9 hPa Calm     90 % 0.0 mm 0.0 W/m2 CLR
03:22 4.4 °C 2.9 °C 1022.9 hPa Calm     90 % 0.0 mm 0.0 W/m2 CLR
03:27 5.0 °C 3.7 °C 1022.6 hPa Calm     91 % 0.0 mm 0.0 W/m2 CLR
03:32 5.0 °C 3.7 °C 1022.9 hPa Calm     91 % 0.0 mm 0.0 W/m2 CLR
03:37 4.4 °C 3.1 °C 1022.9 hPa Calm     91 % 0.0 mm 0.0 W/m2 CLR
03:42 4.4 °C 3.1 °C 1022.9 hPa Calm     91 % 0.0 mm 0.0 W/m2 CLR
03:47 4.4 °C 3.1 °C 1022.9 hPa Calm     91 % 0.0 mm 0.0 W/m2 CLR
03:53 4.4 °C 3.1 °C 1022.9 hPa Calm     91 % 0.0 mm 0.0 W/m2 CLR
03:58 4.4 °C 3.1 °C 1022.9 hPa Calm     91 % 0.0 mm 0.0 W/m2 CLR
04:03 4.4 °C 3.1 °C 1022.9 hPa Calm     91 % 0.0 mm 0.0 W/m2 CLR
04:08 4.4 °C 3.1 °C 1022.9 hPa Calm     91 % 0.0 mm 0.0 W/m2 CLR
04:13 5.0 °C 3.7 °C 1022.9 hPa Calm     91 % 0.0 mm 0.0 W/m2 CLR
04:18 5.0 °C 3.7 °C 1022.9 hPa Calm     91 % 0.0 mm 0.0 W/m2 CLR
04:22 5.0 °C 3.7 °C 1022.9 hPa Calm     91 % 0.0 mm 0.0 W/m2 CLR
04:27 4.4 °C 3.1 °C 1022.9 hPa Calm     91 % 0.0 mm 0.0 W/m2 CLR
04:32 4.4 °C 3.3 °C 1022.9 hPa Calm     92 % 0.0 mm 0.0 W/m2 CLR
04:37 4.4 °C 3.1 °C 1022.9 hPa Calm     91 % 0.0 mm 0.0 W/m2 CLR
04:42 4.4 °C 3.1 °C 1022.6 hPa Calm     91 % 0.0 mm 0.0 W/m2 CLR
04:47 4.4 °C 3.3 °C 1022.6 hPa Calm     92 % 0.0 mm 0.0 W/m2 CLR
04:52 4.4 °C 3.1 °C 1022.6 hPa Calm     91 % 0.0 mm 0.0 W/m2 CLR
04:57 4.4 °C 3.1 °C 1022.6 hPa Calm     91 % 0.0 mm 0.0 W/m2 CLR
05:02 4.4 °C 3.1 °C 1022.6 hPa Calm     91 % 0.0 mm 0.0 W/m2 CLR
05:07 4.4 °C 3.1 °C 1022.6 hPa Calm     91 % 0.0 mm 0.0 W/m2 CLR
05:12 4.4 °C 3.1 °C 1022.6 hPa Calm     91 % 0.0 mm 0.0 W/m2 CLR
05:17 4.4 °C 3.1 °C 1022.6 hPa Calm     91 % 0.0 mm 0.0 W/m2 CLR
05:22 4.4 °C 3.1 °C 1022.6 hPa Calm     91 % 0.0 mm 0.0 W/m2 CLR
05:27 4.4 °C 3.1 °C 1022.6 hPa Calm     91 % 0.0 mm 0.0 W/m2 CLR
05:32 4.4 °C 3.1 °C 1022.6 hPa Calm     91 % 0.0 mm 0.0 W/m2 CLR
05:37 4.4 °C 3.1 °C 1022.6 hPa Calm     91 % 0.0 mm 0.0 W/m2 CLR
05:40 4.4 °C 3.1 °C 1022.6 hPa Calm     91 % 0.0 mm 0.0 W/m2 CLR
05:45 4.4 °C 3.3 °C 1022.6 hPa Calm     92 % 0.0 mm 0.0 W/m2 CLR
05:50 4.4 °C 3.3 °C 1022.6 hPa Calm     92 % 0.0 mm 0.0 W/m2 CLR
05:55 4.4 °C 3.3 °C 1022.6 hPa Calm     92 % 0.0 mm 0.0 W/m2 CLR
06:00 4.4 °C 3.3 °C 1022.6 hPa Calm     92 % 0.0 mm 0.0 W/m2 CLR
06:05 4.4 °C 3.3 °C 1022.6 hPa Calm     92 % 0.0 mm 0.0 W/m2 CLR
06:10 4.4 °C 3.1 °C 1022.6 hPa Calm     91 % 0.0 mm 0.0 W/m2 CLR
06:15 3.9 °C 2.6 °C 1022.6 hPa Calm     91 % 0.0 mm 0.0 W/m2 CLR
06:20 3.9 °C 2.7 °C 1022.6 hPa Calm     92 % 0.0 mm 0.0 W/m2 CLR
06:25 3.9 °C 2.6 °C 1022.6 hPa Calm     91 % 0.0 mm 0.0 W/m2 CLR
06:30 3.9 °C 2.6 °C 1022.6 hPa Calm     91 % 0.0 mm 0.0 W/m2 CLR
06:35 3.9 °C 2.7 °C 1022.6 hPa Calm     92 % 0.0 mm 0.0 W/m2 CLR
06:40 3.9 °C 2.7 °C 1022.6 hPa Calm     92 % 0.0 mm 0.0 W/m2 CLR
06:45 4.4 °C 3.3 °C 1022.6 hPa Calm     92 % 0.0 mm 0.0 W/m2 CLR
06:50 4.4 °C 3.3 °C 1022.6 hPa Calm     92 % 0.0 mm 0.0 W/m2 CLR
06:55 4.4 °C 3.3 °C 1022.6 hPa Calm     92 % 0.0 mm 0.0 W/m2 CLR
07:00 4.4 °C 3.1 °C 1022.6 hPa Calm     91 % 0.0 mm 0.0 W/m2 CLR
07:05 4.4 °C 3.3 °C 1022.6 hPa Calm     92 % 0.0 mm 0.0 W/m2 CLR
07:10 4.4 °C 3.3 °C 1022.6 hPa Calm     92 % 0.0 mm 0.0 W/m2 CLR
07:15 3.9 °C 2.7 °C 1022.6 hPa Calm     92 % 0.0 mm 0.0 W/m2 CLR
07:20 3.9 °C 2.7 °C 1022.6 hPa Calm     92 % 0.0 mm 5.0 W/m2 CLR
07:22 3.9 °C 2.7 °C 1022.6 hPa Calm     92 % 0.0 mm 5.0 W/m2 OVC
07:27 3.9 °C 2.7 °C 1022.6 hPa Calm     92 % 0.0 mm 7.0 W/m2 OVC
07:32 3.9 °C 2.7 °C 1022.6 hPa Calm     92 % 0.0 mm 9.0 W/m2 OVC
07:37 3.9 °C 2.7 °C 1022.6 hPa Calm     92 % 0.0 mm 11.0 W/m2 OVC
07:42 3.9 °C 2.7 °C 1022.6 hPa Calm     92 % 0.0 mm 14.0 W/m2 OVC
07:47 3.9 °C 2.7 °C 1022.6 hPa Calm     92 % 0.0 mm 19.0 W/m2 OVC
07:52 3.9 °C 2.7 °C 1022.6 hPa Calm     92 % 0.0 mm 26.0 W/m2 OVC
07:57 3.9 °C 2.7 °C 1022.6 hPa Calm     92 % 0.0 mm 39.0 W/m2 OVC
08:02 4.4 °C 3.3 °C 1022.9 hPa Calm     92 % 0.0 mm 53.0 W/m2 OVC
08:07 5.0 °C 3.8 °C 1022.9 hPa Calm     92 % 0.0 mm 60.0 W/m2 OVC
08:12 5.0 °C 3.8 °C 1022.9 hPa Calm     92 % 0.0 mm 62.0 W/m2 OVC
08:17 5.6 °C 4.3 °C 1022.9 hPa Calm     92 % 0.0 mm 60.0 W/m2 OVC
08:22 6.1 °C 4.9 °C 1022.9 hPa Calm     92 % 0.0 mm 67.0 W/m2 OVC
08:27 6.1 °C 4.9 °C 1022.9 hPa Calm     92 % 0.0 mm 65.0 W/m2 OVC
08:32 6.1 °C 4.9 °C 1022.9 hPa Calm     92 % 0.0 mm 65.0 W/m2 BKN
08:37 6.1 °C 4.8 °C 1023.2 hPa Calm     91 % 0.0 mm 70.0 W/m2 BKN
08:42 6.7 °C 5.3 °C 1023.2 hPa Calm     91 % 0.0 mm 79.0 W/m2 FEW
08:47 6.7 °C 5.4 °C 1023.2 hPa Calm     92 % 0.0 mm 86.0 W/m2 FEW
08:52 7.2 °C 5.8 °C 1023.2 hPa Calm     91 % 0.0 mm 93.0 W/m2 CLR
08:57 7.8 °C 6.4 °C 1023.2 hPa Calm     91 % 0.0 mm 98.0 W/m2 CLR
09:02 7.8 °C 6.4 °C 1023.2 hPa Calm     91 % 0.0 mm 107.0 W/m2 CLR
09:07 7.8 °C 6.4 °C 1023.2 hPa Calm     91 % 0.0 mm 113.0 W/m2 CLR
09:12 7.8 °C 6.4 °C 1023.2 hPa Calm     91 % 0.0 mm 120.0 W/m2 CLR
09:17 8.3 °C 6.9 °C 1023.2 hPa Calm     91 % 0.0 mm 125.0 W/m2 CLR
09:22 8.3 °C 6.9 °C 1023.2 hPa Calm     91 % 0.0 mm 134.0 W/m2 CLR
09:27 8.9 °C 7.3 °C 1023.2 hPa Calm     90 % 0.0 mm 149.0 W/m2 CLR
09:32 8.9 °C 7.3 °C 1023.2 hPa Calm     90 % 0.0 mm 144.0 W/m2 CLR
09:37 8.9 °C 7.3 °C 1023.2 hPa Calm     90 % 0.0 mm 148.0 W/m2 CLR
09:42 9.4 °C 7.9 °C 1023.2 hPa Calm     90 % 0.0 mm 155.0 W/m2 CLR
09:47 9.4 °C 7.9 °C 1023.2 hPa Calm     90 % 0.0 mm 163.0 W/m2 CLR
09:48 9.4 °C 7.7 °C 1023.2 hPa Calm     89 % 0.0 mm 163.0 W/m2 CLR
09:53 9.4 °C 7.7 °C 1023.2 hPa Calm     89 % 0.0 mm 172.0 W/m2 CLR
09:58 10.0 °C 8.3 °C 1023.2 hPa Calm     89 % 0.0 mm 181.0 W/m2 CLR
10:03 10.0 °C 8.1 °C 1023.2 hPa Calm     88 % 0.0 mm 188.0 W/m2 CLR
10:08 10.6 °C 8.5 °C 1023.2 hPa Calm     87 % 0.0 mm 202.0 W/m2 CLR
10:13 10.6 °C 8.5 °C 1023.2 hPa Calm     87 % 0.0 mm 221.0 W/m2 CLR
10:18 11.1 °C 9.1 °C 1023.2 hPa Calm     87 % 0.0 mm 241.0 W/m2 CLR
10:23 11.1 °C 8.8 °C 1023.2 hPa Calm     86 % 0.0 mm 274.0 W/m2 CLR
10:28 11.7 °C 9.4 °C 1023.2 hPa Calm     86 % 0.0 mm 350.0 W/m2 CLR
10:33 12.2 °C 9.8 °C 1023.2 hPa Calm     85 % 0.0 mm 316.0 W/m2 CLR
10:38 12.8 °C 10.2 °C 1023.2 hPa Calm     84 % 0.0 mm 290.0 W/m2 CLR
10:43 12.8 °C 9.9 °C 1023.2 hPa Calm     83 % 0.0 mm 274.0 W/m2 CLR
10:48 13.3 °C 9.9 °C 1023.2 hPa Calm     80 % 0.0 mm 262.0 W/m2 CLR
10:53 13.3 °C 9.8 °C 1023.2 hPa Calm     79 % 0.0 mm 232.0 W/m2 CLR
10:58 13.9 °C 10.3 °C 1023.2 hPa Calm     79 % 0.0 mm 229.0 W/m2 CLR
11:03 13.9 °C 10.3 °C 1023.2 hPa Calm     79 % 0.0 mm 272.0 W/m2 CLR
11:08 14.4 °C 10.7 °C 1023.2 hPa Calm     78 % 0.0 mm 306.0 W/m2 CLR
11:13 15.0 °C 11.0 °C 1022.9 hPa Calm     77 % 0.0 mm 341.0 W/m2 CLR
11:18 15.0 °C 10.8 °C 1022.9 hPa Calm     76 % 0.0 mm 339.0 W/m2 CLR
11:23 15.0 °C 10.6 °C 1022.9 hPa Calm     75 % 0.0 mm 441.0 W/m2 CLR
11:28 15.6 °C 10.9 °C 1022.9 hPa Calm     74 % 0.0 mm 279.0 W/m2 CLR
11:33 16.1 °C 11.5 °C 1022.9 hPa Calm     74 % 0.0 mm 258.0 W/m2 CLR
11:38 16.1 °C 11.5 °C 1022.6 hPa Calm     74 % 0.0 mm 251.0 W/m2 CLR
11:43 16.1 °C 11.5 °C 1022.6 hPa Calm     74 % 0.0 mm 253.0 W/m2 CLR
11:48 16.1 °C 11.5 °C 1022.6 hPa Calm     74 % 0.0 mm 278.0 W/m2 CLR
11:53 16.1 °C 11.5 °C 1022.6 hPa Calm     74 % 0.0 mm 260.0 W/m2 CLR
11:58 16.1 °C 11.5 °C 1022.6 hPa Calm     74 % 0.0 mm 264.0 W/m2 CLR
12:03 16.1 °C 11.5 °C 1022.6 hPa Calm     74 % 0.0 mm 274.0 W/m2 CLR
12:08 16.7 °C 12.0 °C 1022.6 hPa Calm     74 % 0.0 mm 287.0 W/m2 CLR
12:13 16.7 °C 11.8 °C 1022.2 hPa NNW 5.6 km/h 5.6 km/h 73 % 0.0 mm 292.0 W/m2 CLR
12:18 16.7 °C 11.8 °C 1022.2 hPa NNW 6.4 km/h 6.4 km/h 73 % 0.0 mm 311.0 W/m2 CLR
12:23 16.7 °C 12.0 °C 1022.2 hPa NNW 5.6 km/h 5.6 km/h 74 % 0.0 mm 287.0 W/m2 CLR
12:28 16.7 °C 11.8 °C 1022.2 hPa North 5.6 km/h 5.6 km/h 73 % 0.0 mm 295.0 W/m2 CLR
12:33 16.7 °C 11.8 °C 1022.2 hPa NNW 8.0 km/h 8.0 km/h 73 % 0.0 mm 292.0 W/m2 CLR
12:38 16.7 °C 11.8 °C 1021.9 hPa NNW 3.7 km/h   73 % 0.0 mm 341.0 W/m2 CLR
12:43 16.7 °C 11.8 °C 1021.9 hPa Calm     73 % 0.0 mm 294.0 W/m2 CLR
12:48 16.7 °C 11.8 °C 1021.9 hPa Calm     73 % 0.0 mm 287.0 W/m2 CLR
12:53 16.7 °C 11.8 °C 1021.6 hPa Calm     73 % 0.0 mm 387.0 W/m2 CLR
12:58 16.7 °C 12.0 °C 1021.6 hPa North 1.9 km/h 1.9 km/h 74 % 0.0 mm 448.0 W/m2 CLR
13:03 16.7 °C 11.8 °C 1021.6 hPa Calm     73 % 0.0 mm 292.0 W/m2 CLR
13:08 17.2 °C 12.3 °C 1021.6 hPa NNW 5.6 km/h 5.6 km/h 73 % 0.0 mm 527.0 W/m2 CLR
13:13 17.2 °C 12.3 °C 1021.6 hPa Calm     73 % 0.0 mm 485.0 W/m2 CLR
13:18 17.2 °C 12.3 °C 1021.2 hPa Calm     73 % 0.0 mm 309.0 W/m2 CLR
13:23 17.8 °C 12.7 °C 1021.2 hPa Calm     72 % 0.0 mm 287.0 W/m2 CLR
13:28 17.8 °C 12.9 °C 1021.2 hPa Calm     73 % 0.0 mm 302.0 W/m2 CLR
13:33 17.8 °C 12.7 °C 1020.9 hPa NW 5.6 km/h   72 % 0.0 mm 323.0 W/m2 CLR
13:38 17.8 °C 12.7 °C 1020.9 hPa NW 5.6 km/h 5.6 km/h 72 % 0.0 mm 316.0 W/m2 CLR
13:43 17.8 °C 12.9 °C 1020.9 hPa Calm     73 % 0.0 mm 320.0 W/m2 CLR
13:48 17.8 °C 12.7 °C 1020.9 hPa NW 5.6 km/h 5.6 km/h 72 % 0.0 mm 346.0 W/m2 CLR
13:53 17.8 °C 12.7 °C 1020.5 hPa North 7.4 km/h 7.4 km/h 72 % 0.0 mm 294.0 W/m2 CLR
13:58 18.3 °C 13.2 °C 1020.5 hPa NNW 7.4 km/h 7.4 km/h 72 % 0.0 mm 413.0 W/m2 CLR
14:03 18.9 °C 13.7 °C 1020.5 hPa NNW 14.8 km/h 14.8 km/h 72 % 0.0 mm 559.0 W/m2 CLR
14:08 18.9 °C 13.5 °C 1020.5 hPa NW 7.4 km/h   71 % 0.0 mm 504.0 W/m2 CLR
14:14 18.9 °C 13.5 °C 1020.2 hPa NW 5.6 km/h 5.6 km/h 71 % 0.0 mm 490.0 W/m2 CLR
14:19 18.9 °C 13.3 °C 1020.2 hPa NW 4.8 km/h 4.8 km/h 70 % 0.0 mm 480.0 W/m2 CLR
14:24 19.4 °C 13.8 °C 1020.2 hPa NNW 8.0 km/h 8.0 km/h 70 % 0.0 mm 431.0 W/m2 CLR
14:29 19.4 °C 13.4 °C 1019.9 hPa Calm     68 % 0.0 mm 422.0 W/m2 CLR
14:34 20.0 °C 13.9 °C 1019.9 hPa Calm     68 % 0.0 mm 464.0 W/m2 CLR
14:39 20.0 °C 13.7 °C 1019.9 hPa NW 5.6 km/h   67 % 0.0 mm 427.0 W/m2 CLR
14:44 20.0 °C 13.7 °C 1019.9 hPa NNW 9.3 km/h 9.3 km/h 67 % 0.0 mm 396.0 W/m2 CLR
14:49 20.0 °C 13.4 °C 1019.5 hPa WNW 5.6 km/h 5.6 km/h 66 % 0.0 mm 287.0 W/m2 CLR
14:54 20.0 °C 13.4 °C 1019.5 hPa NW 9.3 km/h 9.3 km/h 66 % 0.0 mm 334.0 W/m2 CLR
14:59 20.0 °C 13.4 °C 1019.5 hPa NW 13.0 km/h 13.0 km/h 66 % 0.0 mm 346.0 W/m2 CLR
15:04 20.0 °C 13.4 °C 1019.5 hPa NW 7.4 km/h 7.4 km/h 66 % 0.0 mm 408.0 W/m2 CLR
15:09 20.6 °C 13.7 °C 1019.5 hPa NW 8.0 km/h 8.0 km/h 65 % 0.0 mm 415.0 W/m2 CLR
15:14 21.1 °C 14.1 °C 1019.5 hPa Calm     64 % 0.0 mm 420.0 W/m2 CLR
15:19 21.1 °C 13.8 °C 1019.5 hPa NNE 1.9 km/h   63 % 0.0 mm 367.0 W/m2 CLR
15:24 21.1 °C 13.8 °C 1019.2 hPa NNE 5.6 km/h 5.6 km/h 63 % 0.0 mm 292.0 W/m2 CLR
15:29 21.1 °C 13.8 °C 1019.2 hPa NNE 6.4 km/h 6.4 km/h 63 % 0.0 mm 253.0 W/m2 CLR
15:34 21.1 °C 14.1 °C 1019.2 hPa Calm     64 % 0.0 mm 272.0 W/m2 CLR
15:39 21.1 °C 14.1 °C 1019.2 hPa NNW 3.7 km/h   64 % 0.0 mm 292.0 W/m2 CLR
15:44 21.1 °C 14.1 °C 1019.2 hPa North 7.4 km/h 7.4 km/h 64 % 0.0 mm 237.0 W/m2 CLR
15:49 20.6 °C 13.5 °C 1019.2 hPa North 20.4 km/h 20.4 km/h 64 % 0.0 mm 251.0 W/m2 CLR
15:54 20.6 °C 13.3 °C 1019.2 hPa Calm     63 % 0.0 mm 213.0 W/m2 CLR
15:59 20.6 °C 13.5 °C 1019.2 hPa NW 18.5 km/h 18.5 km/h 64 % 0.0 mm 118.0 W/m2 CLR
16:04 20.6 °C 13.7 °C 1019.2 hPa NNW 7.4 km/h 7.4 km/h 65 % 0.0 mm 151.0 W/m2 CLR
16:09 20.0 °C 13.4 °C 1019.2 hPa North 5.6 km/h 5.6 km/h 66 % 0.0 mm 105.0 W/m2 CLR
16:14 20.0 °C 13.4 °C 1019.2 hPa Calm     66 % 0.0 mm 91.0 W/m2 CLR
16:19 20.0 °C 13.4 °C 1019.2 hPa Calm     66 % 0.0 mm 88.0 W/m2 CLR
16:24 19.4 °C 12.9 °C 1019.2 hPa Calm     66 % 0.0 mm 83.0 W/m2 CLR
16:29 19.4 °C 13.2 °C 1019.2 hPa North 11.1 km/h 11.1 km/h 67 % 0.0 mm 88.0 W/m2 FEW
16:34 19.4 °C 13.2 °C 1019.2 hPa North 5.6 km/h 5.6 km/h 67 % 0.0 mm 88.0 W/m2 CLR
16:39 19.4 °C 13.2 °C 1019.2 hPa NNE 6.4 km/h 6.4 km/h 67 % 0.0 mm 81.0 W/m2 CLR
16:44 19.4 °C 13.4 °C 1019.2 hPa NNE 7.4 km/h 7.4 km/h 68 % 0.0 mm 77.0 W/m2 FEW
16:49 19.4 °C 13.4 °C 1019.2 hPa North 14.5 km/h 14.5 km/h 68 % 0.0 mm 70.0 W/m2 FEW
16:54 19.4 °C 13.6 °C 1019.2 hPa North 13.0 km/h 13.0 km/h 69 % 0.0 mm 58.0 W/m2 SCT
16:59 19.4 °C 13.6 °C 1019.2 hPa NE 9.7 km/h 9.7 km/h 69 % 0.0 mm 49.0 W/m2 SCT
17:04 18.9 °C 13.3 °C 1019.2 hPa NE 3.2 km/h 3.2 km/h 70 % 0.0 mm 42.0 W/m2 BKN
17:09 18.9 °C 13.3 °C 1019.2 hPa NNE 13.0 km/h 13.0 km/h 70 % 0.0 mm 37.0 W/m2 BKN
17:14 18.3 °C 12.8 °C 1019.2 hPa NNE 5.6 km/h 5.6 km/h 70 % 0.0 mm 32.0 W/m2 BKN
17:19 18.3 °C 12.8 °C 1019.2 hPa NNE 5.6 km/h   70 % 0.0 mm 26.0 W/m2 BKN
17:24 18.3 °C 12.8 °C 1019.2 hPa NNE 11.1 km/h 11.1 km/h 70 % 0.0 mm 21.0 W/m2 BKN
17:29 17.8 °C 12.2 °C 1019.2 hPa Calm     70 % 0.0 mm 18.0 W/m2 BKN
17:34 17.8 °C 12.2 °C 1019.2 hPa Calm     70 % 0.0 mm 16.0 W/m2 BKN
17:39 17.2 °C 11.7 °C 1019.2 hPa Calm     70 % 0.0 mm 16.0 W/m2 BKN
17:44 16.7 °C 11.4 °C 1019.2 hPa Calm     71 % 0.0 mm 11.0 W/m2 BKN
17:49 16.7 °C 11.4 °C 1019.2 hPa Calm     71 % 0.0 mm 5.0 W/m2 OVC
17:54 16.1 °C 10.6 °C 1019.2 hPa NE 7.4 km/h 7.4 km/h 70 % 0.0 mm 0.0 W/m2 OVC
17:59 16.1 °C 10.4 °C 1019.2 hPa Calm     69 % 0.0 mm 0.0 W/m2 OVC
18:04 15.6 °C 9.7 °C 1018.8 hPa Calm     68 % 0.0 mm 0.0 W/m2 CLR
18:09 15.0 °C 9.1 °C 1019.2 hPa NNE 1.9 km/h 1.9 km/h 68 % 0.0 mm 0.0 W/m2 CLR
18:14 14.4 °C 8.8 °C 1019.2 hPa Calm     69 % 0.0 mm 0.0 W/m2 CLR
18:19 14.4 °C 8.8 °C 1019.2 hPa Calm     69 % 0.0 mm 0.0 W/m2 CLR
18:24 13.9 °C 8.3 °C 1019.2 hPa NNE 5.6 km/h 5.6 km/h 69 % 0.0 mm 0.0 W/m2 CLR
18:29 13.9 °C 8.5 °C 1019.2 hPa NE 7.4 km/h 7.4 km/h 70 % 0.0 mm 0.0 W/m2 CLR
18:34 13.3 °C 8.0 °C 1019.2 hPa NE 5.6 km/h 5.6 km/h 70 % 0.0 mm 0.0 W/m2 CLR
18:39 13.3 °C 8.0 °C 1019.2 hPa Calm     70 % 0.0 mm 0.0 W/m2 CLR
18:44 13.3 °C 8.2 °C 1019.2 hPa Calm     71 % 0.0 mm 0.0 W/m2 CLR
18:49 13.3 °C 8.2 °C 1019.2 hPa Calm     71 % 0.0 mm 0.0 W/m2 CLR
18:54 13.3 °C 8.4 °C 1019.2 hPa Calm     72 % 0.0 mm 0.0 W/m2 CLR
18:59 13.3 °C 8.4 °C 1019.2 hPa Calm     72 % 0.0 mm 0.0 W/m2 CLR
19:04 12.8 °C 7.8 °C 1019.2 hPa Calm     72 % 0.0 mm 0.0 W/m2 CLR
19:09 12.8 °C 8.1 °C 1019.5 hPa East 3.2 km/h 3.2 km/h 73 % 0.0 mm 0.0 W/m2 CLR
19:14 12.8 °C 8.3 °C 1019.5 hPa Calm     74 % 0.0 mm 0.0 W/m2 CLR
19:19 12.8 °C 8.3 °C 1019.5 hPa Calm     74 % 0.0 mm 0.0 W/m2 CLR
19:24 12.8 °C 8.3 °C 1019.5 hPa Calm     74 % 0.0 mm 0.0 W/m2 CLR
19:29 12.2 °C 7.7 °C 1019.5 hPa Calm     74 % 0.0 mm 0.0 W/m2 CLR
19:34 12.2 °C 7.7 °C 1019.5 hPa Calm     74 % 0.0 mm 0.0 W/m2 CLR
19:39 12.2 °C 7.9 °C 1019.5 hPa Calm     75 % 0.0 mm 0.0 W/m2 CLR
19:44 12.2 °C 7.9 °C 1019.5 hPa Calm     75 % 0.0 mm 0.0 W/m2 CLR
19:49 11.7 °C 7.6 °C 1019.9 hPa Calm     76 % 0.0 mm 0.0 W/m2 CLR
19:54 11.7 °C 7.8 °C 1019.9 hPa Calm     77 % 0.0 mm 0.0 W/m2 CLR
20:00 11.7 °C 7.6 °C 1019.9 hPa Calm     76 % 0.0 mm 0.0 W/m2 CLR
20:05 12.2 °C 8.1 °C 1019.9 hPa Calm     76 % 0.0 mm 0.0 W/m2 CLR
20:10 12.2 °C 8.5 °C 1019.9 hPa Calm     78 % 0.0 mm 0.0 W/m2 CLR
20:15 11.7 °C 7.9 °C 1019.9 hPa Calm     78 % 0.0 mm 0.0 W/m2 CLR
20:20 11.7 °C 7.9 °C 1019.9 hPa Calm     78 % 0.0 mm 0.0 W/m2 CLR
20:25 11.7 °C 7.8 °C 1019.9 hPa Calm     77 % 0.0 mm 0.0 W/m2 CLR
20:30 11.1 °C 7.2 °C 1019.9 hPa Calm     77 % 0.0 mm 0.0 W/m2 CLR
20:35 11.7 °C 7.9 °C 1019.9 hPa Calm     78 % 0.0 mm 0.0 W/m2 CLR
20:40 11.7 °C 8.2 °C 1019.9 hPa Calm     79 % 0.0 mm 0.0 W/m2 CLR
20:45 12.2 °C 8.7 °C 1019.9 hPa Calm     79 % 0.0 mm 0.0 W/m2 CLR
20:48 12.2 °C 8.9 °C 1019.9 hPa Calm     80 % 0.0 mm 0.0 W/m2 CLR
20:53 12.2 °C 9.1 °C 1019.9 hPa Calm     81 % 0.0 mm 0.0 W/m2 CLR
20:58 11.7 °C 8.5 °C 1019.9 hPa Calm     81 % 0.0 mm 0.0 W/m2 CLR
21:03 11.7 °C 8.7 °C 1020.2 hPa Calm     82 % 0.0 mm 0.0 W/m2 CLR
21:04 11.7 °C 8.7 °C 1020.2 hPa Calm     82 % 0.0 mm 0.0 W/m2 CLR
21:09 11.1 °C 7.9 °C 1019.9 hPa Calm     81 % 0.0 mm 0.0 W/m2 CLR
21:14 11.1 °C 7.9 °C 1019.9 hPa Calm     81 % 0.0 mm 0.0 W/m2 CLR
21:19 10.6 °C 7.6 °C 1019.9 hPa Calm     82 % 0.0 mm 0.0 W/m2 CLR
21:24 10.6 °C 7.6 °C 1019.9 hPa Calm     82 % 0.0 mm 0.0 W/m2 CLR
21:29 10.6 °C 7.6 °C 1019.9 hPa Calm     82 % 0.0 mm 0.0 W/m2 CLR
21:34 10.6 °C 7.8 °C 1020.2 hPa Calm     83 % 0.0 mm 0.0 W/m2 CLR
21:39 10.0 °C 7.2 °C 1020.2 hPa Calm     83 % 0.0 mm 0.0 W/m2 CLR
21:44 10.0 °C 7.4 °C 1020.2 hPa Calm     84 % 0.0 mm 0.0 W/m2 CLR
21:49 10.0 °C 7.6 °C 1020.2 hPa Calm     85 % 0.0 mm 0.0 W/m2 CLR
21:54 10.0 °C 7.6 °C 1020.2 hPa Calm     85 % 0.0 mm 0.0 W/m2 CLR
21:59 9.4 °C 7.1 °C 1020.2 hPa Calm     85 % 0.0 mm 0.0 W/m2 CLR
22:05 9.4 °C 7.1 °C 1020.2 hPa Calm     85 % 0.0 mm 0.0 W/m2 CLR
22:10 9.4 °C 7.1 °C 1020.2 hPa Calm     85 % 0.0 mm 0.0 W/m2 CLR
22:15 9.4 °C 7.1 °C 1020.2 hPa Calm     85 % 0.0 mm 0.0 W/m2 CLR
22:20 9.4 °C 7.2 °C 1020.2 hPa Calm     86 % 0.0 mm 0.0 W/m2 CLR
22:25 9.4 °C 7.2 °C 1020.2 hPa Calm     86 % 0.0 mm 0.0 W/m2 CLR
22:30 8.9 °C 6.5 °C 1020.2 hPa Calm     85 % 0.0 mm 0.0 W/m2 CLR
22:35 8.9 °C 6.7 °C 1020.2 hPa Calm     86 % 0.0 mm 0.0 W/m2 CLR
22:40 8.9 °C 6.7 °C 1020.2 hPa Calm     86 % 0.0 mm 0.0 W/m2 CLR
22:45 8.9 °C 6.7 °C 1019.9 hPa Calm     86 % 0.0 mm 0.0 W/m2 CLR
22:50 8.3 °C 6.1 °C 1019.9 hPa Calm     86 % 0.0 mm 0.0 W/m2 CLR
22:55 8.3 °C 6.1 °C 1019.9 hPa Calm     86 % 0.0 mm 0.0 W/m2 CLR
23:00 8.3 °C 6.3 °C 1019.9 hPa Calm     87 % 0.0 mm 0.0 W/m2 CLR
23:05 8.3 °C 6.3 °C 1019.9 hPa Calm     87 % 0.0 mm 0.0 W/m2 CLR
23:10 8.3 °C 6.1 °C 1019.9 hPa Calm     86 % 0.0 mm 0.0 W/m2 CLR
23:15 8.3 °C 6.1 °C 1019.9 hPa Calm     86 % 0.0 mm 0.0 W/m2 CLR
23:20 8.3 °C 6.3 °C 1019.9 hPa Calm     87 % 0.0 mm 0.0 W/m2 CLR
23:25 8.3 °C 6.3 °C 1019.9 hPa Calm     87 % 0.0 mm 0.0 W/m2 CLR
23:30 8.3 °C 6.3 °C 1019.9 hPa Calm     87 % 0.0 mm 0.0 W/m2 CLR
23:35 8.3 °C 6.3 °C 1019.9 hPa Calm     87 % 0.0 mm 0.0 W/m2 CLR
23:40 7.8 °C 5.7 °C 1019.9 hPa Calm     87 % 0.0 mm 0.0 W/m2 CLR
23:45 7.8 °C 5.7 °C 1019.9 hPa Calm     87 % 0.0 mm 0.0 W/m2 CLR
23:50 7.8 °C 5.7 °C 1019.9 hPa Calm     87 % 0.0 mm 0.0 W/m2 CLR
23:55 7.8 °C 5.7 °C 1019.9 hPa Calm     87 % 0.0 mm 0.0 W/m2 CLR
Lo Temps de Massalio
Compliments of Weather Underground - 1.25 mb